LexMAWeather

Lexington, Massachusetts, USA

64°F
9/23/2017 9:15pm 
  • Lexington Conditions: Clear
  • Temperature: 63.9°F / 17.7°CColder 1.6°F than last hour.
  • Dew Point: 62.1°FDecreased 0.7°Fsince last hour.
  • Humidity: 94%Increased 3.0% since last hour.
  • Wind: Calm, gust: None
  • Barometer: 30.00 in Steady
  • Visibility: 10 miles
  • Rain Today: 0.00 in
  •   
Special Weather Statement SPECIAL WEATHER STATEMENT - Middlesex County - Southeast Middlesex County

Nearby Reports - Official Weather Stations - Current Conditions

Data from the National Weather Service

KBED - Bedford, Massachusetts, USA


Distance from station: WNW 4mi, 6km

Updated Sat, Sep 23, 2017 8:56pm EDT

Clear

Clear

Wind from calm

Wind:

Calm

Temperature: 64°F (18°C)

Dew Point: 59°F (15°C)

Humidity: 83%

Barometer: 30.02 in (1016.6 hPa)

Clouds: Clear

Visibility: 10 miles (16 km)


2017/09/24 00:56 KBED 240056Z 00000KT 10SM CLR 18/15 A3002 RMK AO2 SLP178 T01830150

KBOS - Boston, Massachusetts, USA


Distance from station: ESE 12mi, 20km

Updated Sat, Sep 23, 2017 8:54pm EDT

Fog, Overcast

Fog, Overcast

Wind from SSE

Wind:

SSE 5 mph , 7 km/h

Temperature: 61°F (16°C)

Dew Point: 61°F (16°C)

Humidity: 100%

Barometer: 30.04 in (1017.3 hPa)

Summary: Fog

Clouds: Overcast

Visibility: ¼ mile (0 km)

Cloud details: Overcast 200 ft


2017/09/24 00:54 KBOS 240054Z 16004KT 1/4SM R04R/1400V2800FT FG VV002 16/16 A3004 RMK AO2 SFC VIS 1/2 SLP171 T01610161

KOWD - Norwood, Massachusetts, USA


Distance from station: SSE 18mi, 29km

Updated Sat, Sep 23, 2017 8:53pm EDT

Partly cloudy

Partly cloudy

Wind from calm

Wind:

Calm

Temperature: 61°F (16°C)

Dew Point: 59°F (15°C)

Humidity: 94%

Barometer: 30.03 in (1016.9 hPa)

Clouds: Partly cloudy

Visibility: 10 miles (16 km)

Cloud details: Partly cloudy 200 ft


2017/09/24 00:53 KOWD 240053Z 00000KT 10SM SCT002 16/15 A3003 RMK AO2 SLP168 T01610150

KBVY - Beverly, Massachusetts, USA


Distance from station: ENE 19mi, 31km

Updated Sat, Sep 23, 2017 8:53pm EDT

Mist, Overcast

Mist, Overcast

Wind from calm

Wind:

Calm

Temperature: 61°F (16°C)

Dew Point: 61°F (16°C)

Humidity: 100%

Barometer: 30.03 in (1016.9 hPa)

Summary: Mist

Clouds: Overcast

Visibility: 1 mile (2 km)

Cloud details: Overcast 100 ft


2017/09/24 00:53 KBVY 240053Z 00000KT 1SM BR OVC001 16/16 A3003 RMK AO2 SLP163 LAST T01610161 $

KLWM - Lawrence, Massachusetts, USA


Distance from station: NNE 20mi, 32km

Updated Sat, Sep 23, 2017 8:54pm EDT

Clear

Clear

Wind from calm

Wind:

Calm

Temperature: 68°F (20°C)

Dew Point: 63°F (17°C)

Humidity: 83%

Barometer: 30.05 in (1017.6 hPa)

Clouds: Clear

Visibility: 10 miles (16 km)


2017/09/24 00:54 KLWM 240054Z 00000KT 10SM CLR 20/17 A3005 RMK AO2 SLP175 T02000167

KFIT - Fitchburg, Massachusetts, USA


Distance from station: WNW 27mi, 44km

Updated Sat, Sep 23, 2017 8:52pm EDT

Clear

Clear

Wind from N

Wind:

N 3 mph , 6 km/h

Temperature: 68°F (20°C)

Dew Point: 63°F (17°C)

Humidity: 83%

Barometer: 30.05 in (1017.6 hPa)

Clouds: Clear

Visibility: 10 miles (16 km)


2017/09/24 00:52 KFIT 240052Z AUTO 35003KT 10SM CLR 20/17 A3005 RMK AO2 SLP174 T02000167

KASH - Nashua/Boire Fld, New Hampshire, USA


Distance from station: NNW 28mi, 44km

Updated Sat, Sep 23, 2017 8:56pm EDT

Clear

Clear

Wind from calm

Wind:

Calm

Temperature: 66°F (19°C)

Dew Point: 63°F (17°C)

Humidity: 88%

Barometer: 30.04 in (1017.3 hPa)

Clouds: Clear

Visibility: 10 miles (16 km)


2017/09/24 00:56 KASH 240056Z 00000KT 10SM CLR 19/17 A3004 RMK AO2 SLP180 T01940172

KORH - Worcester, Massachusetts, USA


Distance from station: WSW 34mi, 55km

Updated Sat, Sep 23, 2017 8:54pm EDT

Clear

Clear

Wind from N

Wind:

N 3 mph , 6 km/h

Temperature: 68°F (20°C)

Dew Point: 57°F (14°C)

Humidity: 69%

Barometer: 30.07 in (1018.3 hPa)

Clouds: Clear

Visibility: 10 miles (16 km)


2017/09/24 00:54 KORH 240054Z 35003KT 10SM CLR 20/14 A3007 RMK AO2 SLP180 T02000144

KMHT - Manchester, New Hampshire, USA


Distance from station: NNW 35mi, 57km

Updated Sat, Sep 23, 2017 8:53pm EDT

Clear

Clear

Wind from calm

Wind:

Calm

Temperature: 72°F (22°C)

Dew Point: 63°F (17°C)

Humidity: 73%

Barometer: 30.02 in (1016.6 hPa)

Clouds: Clear

Visibility: 10 miles (16 km)


2017/09/24 00:53 KMHT 240053Z 00000KT 10SM CLR 22/17 A3002 RMK AO2 SLP175 T02220167


Warning: A non-numeric value encountered in /homepages/6/d276339138/htdocs/weather/20170809/ssi/functions.php on line 437

KGHG - Marshfield, Massachusetts, USA


Distance from station: SE 38mi, 60km

Updated Sat, Sep 23, 2017 8:55pm EDT

Fog, Overcast

Fog, Overcast

Wind from calm

Wind:

Calm

Temperature: 63°F (17°C)

Dew Point: 63°F (17°C)

Humidity: 100%

Barometer: 30.04 in (1017.3 hPa)

Summary: Fog

Clouds: Overcast

Visibility: less than 10

Cloud details: Overcast 100 ft


2017/09/24 00:55 KGHG 240055Z AUTO 00000KT M1/4SM FG OVC001 17/17 A3004 RMK AO2

KSFZ - Pawtucket, Rhode Island, USA


Distance from station: SSW 39mi, 62km

Updated Sat, Sep 23, 2017 8:56pm EDT

Clear

Clear

Wind from calm

Wind:

Calm

Temperature: 63°F (17°C)

Dew Point: 63°F (17°C)

Humidity: 100%

Barometer: 30.05 in (1017.6 hPa)

Clouds: Clear

Visibility: 10 miles (16 km)


2017/09/24 00:56 KSFZ 240056Z AUTO 00000KT 10SM CLR 17/17 A3005 RMK AO2 SLP121 T01670167

KTAN - Taunton, Massachusetts, USA


Distance from station: SSE 40mi, 65km

Updated Sat, Sep 23, 2017 8:52pm EDT

Mist, Overcast

Mist, Overcast

Wind from ENE

Wind:

ENE 3 mph , 6 km/h

Temperature: 64°F (18°C)

Dew Point: 63°F (17°C)

Humidity: 94%

Barometer: 30.03 in (1016.9 hPa)

Summary: Mist

Clouds: Overcast

Visibility: ¾ mile (1 km)

Cloud details: Overcast 200 ft


2017/09/24 00:52 KTAN 240052Z AUTO 07003KT 3/4SM BR VV002 18/17 A3003 RMK AO2 SLP169 T01830172

KPYM - Plymouth, Massachusetts, USA


Distance from station: SE 44mi, 72km

Updated Sat, Sep 23, 2017 8:52pm EDT

Fog, Overcast

Fog, Overcast

Wind from ENE

Wind:

ENE 3 mph , 6 km/h

Temperature: 63°F (17°C)

Dew Point: 61°F (16°C)

Humidity: 94%

Barometer: 30.04 in (1017.3 hPa)

Summary: Fog

Clouds: Overcast

Visibility: ½ mile (1 km)

Cloud details: Overcast 200 ft


2017/09/24 00:52 KPYM 240052Z AUTO 06003KT 1/2SM FG VV002 17/16 A3004 RMK AO2 SLP173 T01720161

KAFN - Jaffrey, New Hampshire, USA


Distance from station: WNW 46mi, 74km

Updated Sat, Sep 23, 2017 8:52pm EDT

Clear

Clear

Wind from calm

Wind:

Calm

Temperature: 64°F (18°C)

Dew Point: 61°F (16°C)

Humidity: 88%

Barometer: 30.08 in (1018.6 hPa)

Clouds: Clear

Visibility: 10 miles (16 km)


2017/09/24 00:52 KAFN 240052Z AUTO 00000KT 10SM CLR 18/16 A3008 RMK AO2 SLP187 T01780161

KPSM - Portsmouth/Pease, New Hampshire, USA


Distance from station: NNE 48mi, 78km

Updated Sat, Sep 23, 2017 7:58pm EDT (NOT Current)

Few Clouds

Few Clouds

Wind from S

Wind:

S 3 mph , 6 km/h

Temperature: 64°F (18°C)

Dew Point: 59°F (15°C)

Humidity: 83%

Barometer: 30.01 in (1016.3 hPa)

Clouds: Few Clouds

Visibility: 10 miles (16 km)

Cloud details: Few Clouds 25000 ft


2017/09/23 23:58 KPSM 232358Z 18003KT 10SM FEW250 18/15 A3001 RMK AO2A SLP166 T01780146 10261 20178 53005 $

KPVD - Providence/Green, Rhode Island, USA


Distance from station: S 51mi, 82km

Updated Sat, Sep 23, 2017 8:51pm EDT

Clear

Clear

Wind from calm

Wind:

Calm

Temperature: 66°F (19°C)

Dew Point: 64°F (18°C)

Humidity: 94%

Barometer: 30.04 in (1017.3 hPa)

Clouds: Clear

Visibility: 10 miles (16 km)


2017/09/24 00:51 KPVD 240051Z 00000KT 10SM CLR 19/18 A3004 RMK AO2 SLP171 T01940183

KCON - Concord, New Hampshire, USA


Distance from station: NNW 54mi, 87km

Updated Sat, Sep 23, 2017 8:51pm EDT

Clear

Clear

Wind from calm

Wind:

Calm

Temperature: 66°F (19°C)

Dew Point: 63°F (17°C)

Humidity: 88%

Barometer: 30.03 in (1016.9 hPa)

Clouds: Clear

Visibility: 10 miles (16 km)


2017/09/24 00:51 KCON 240051Z AUTO 00000KT 10SM CLR 19/17 A3003 RMK AO2 SLP170 T01890167

KEWB - New Bedford, Massachusetts, USA


Distance from station: SSE 54mi, 87km

Updated Sat, Sep 23, 2017 8:53pm EDT

Mist, Overcast

Mist, Overcast

Wind from NNE

Wind:

NNE 5 mph , 7 km/h

Temperature: 64°F (18°C)

Dew Point: 63°F (17°C)

Humidity: 94%

Barometer: 30.02 in (1016.6 hPa)

Summary: Mist

Clouds: Overcast

Visibility: 1½ miles (1 km)

Cloud details: Overcast 300 ft


2017/09/24 00:53 KEWB 240053Z 03004KT 1 1/2SM BR OVC003 18/17 A3002 RMK AO2 SLP165 T01780172 $

KMWN - Mount Washington, New Hampshire, USA


Distance from station: N 126mi, 203km

Updated Sat, Sep 23, 2017 8:50pm EDT

Few Clouds

Few Clouds

Wind from N

Wind:

N 17 mph , 28 km/h,
Gust: 29 mph , 46 km/h

Temperature: 57°F (14°C)

Dew Point: 54°F (12°C)

Humidity: 88%

Clouds: Few Clouds

Visibility: 35 miles (56 km)

Cloud details: Few Clouds 200 ft


2017/09/24 00:50 KMWN 240050Z 01015G25KT 35SM FEW/// FEW002 14/12 RMK TPS LWR FEW056 HZ DSNT ALQDS